createdAt,value
2019-03-27T00:01:44.835Z,11.70
2019-03-27T00:04:12.160Z,11.25
2019-03-27T00:06:39.477Z,11.57
2019-03-27T00:09:06.866Z,11.53
2019-03-27T00:11:34.161Z,12.13
2019-03-27T00:14:01.469Z,11.18
2019-03-27T00:16:28.778Z,10.68
2019-03-27T00:18:56.085Z,10.75
2019-03-27T00:21:23.413Z,11.97
2019-03-27T00:23:50.707Z,11.70
2019-03-27T00:26:18.006Z,11.35
2019-03-27T00:28:45.317Z,11.10
2019-03-27T00:31:12.620Z,12.18
2019-03-27T00:33:39.932Z,11.25
2019-03-27T00:36:07.226Z,11.10
2019-03-27T00:38:34.555Z,11.55
2019-03-27T00:41:01.862Z,11.68
2019-03-27T00:43:29.153Z,11.53
2019-03-27T00:45:56.480Z,12.20
2019-03-27T00:48:23.776Z,10.85
2019-03-27T00:50:51.093Z,11.48
2019-03-27T00:53:18.385Z,11.15
2019-03-27T00:55:45.674Z,10.90
2019-03-27T00:58:12.998Z,10.55
2019-03-27T01:00:44.891Z,11.40
2019-03-27T01:03:12.211Z,10.53
2019-03-27T01:05:39.506Z,12.00
2019-03-27T01:08:06.812Z,13.10
2019-03-27T01:10:34.105Z,11.78
2019-03-27T01:13:01.423Z,13.03
2019-03-27T01:15:39.093Z,10.98
2019-03-27T01:17:57.654Z,13.13
2019-03-27T01:20:24.966Z,14.35
2019-03-27T01:22:52.275Z,15.13
2019-03-27T01:25:19.590Z,15.55
2019-03-27T01:27:46.886Z,16.07
2019-03-27T01:30:14.194Z,18.87
2019-03-27T01:32:41.491Z,16.07
2019-03-27T01:35:08.805Z,17.23
2019-03-27T01:37:36.102Z,17.07
2019-03-27T01:40:03.470Z,17.27
2019-03-27T01:42:30.796Z,17.15
2019-03-27T01:44:58.119Z,18.07
2019-03-27T01:47:25.438Z,17.42
2019-03-27T01:49:52.787Z,16.60
2019-03-27T01:52:20.063Z,15.65
2019-03-27T01:54:47.358Z,15.60
2019-03-27T01:57:14.674Z,15.55
2019-03-27T01:59:41.971Z,14.90
2019-03-27T02:02:09.282Z,13.28
2019-03-27T02:04:36.579Z,13.75
2019-03-27T02:07:03.893Z,14.05
2019-03-27T02:09:31.189Z,13.98
2019-03-27T02:11:58.511Z,12.78
2019-03-27T02:14:25.800Z,13.60
2019-03-27T02:16:53.098Z,13.28
2019-03-27T02:19:20.422Z,13.88
2019-03-27T02:21:47.714Z,14.33
2019-03-27T02:24:15.005Z,16.25
2019-03-27T02:26:42.323Z,15.78
2019-03-27T02:29:09.619Z,16.02
2019-03-27T02:31:36.926Z,13.30
2019-03-27T02:34:04.240Z,16.32
2019-03-27T02:36:31.563Z,12.90
2019-03-27T02:38:58.851Z,13.43
2019-03-27T02:41:26.215Z,14.33
2019-03-27T02:43:53.539Z,12.15
2019-03-27T02:46:24.860Z,11.53
2019-03-27T02:48:49.788Z,12.05
2019-03-27T02:51:17.084Z,13.30
2019-03-27T02:53:44.379Z,12.55
2019-03-27T02:56:11.669Z,12.45
2019-03-27T02:58:38.991Z,10.48
2019-03-27T03:01:06.279Z,11.90
2019-03-27T03:03:33.590Z,15.10
2019-03-27T03:06:00.907Z,14.23
2019-03-27T03:08:28.214Z,14.33
2019-03-27T03:10:55.503Z,14.03
2019-03-27T03:13:22.831Z,14.20
2019-03-27T03:15:50.111Z,14.20
2019-03-27T03:18:17.436Z,13.70
2019-03-27T03:20:44.728Z,13.78
2019-03-27T03:23:12.035Z,12.95
2019-03-27T03:25:39.382Z,12.75
2019-03-27T03:28:06.649Z,13.70
2019-03-27T03:30:33.950Z,13.93
2019-03-27T03:33:01.244Z,12.68
2019-03-27T03:35:28.595Z,13.05
2019-03-27T03:37:55.868Z,12.30
2019-03-27T03:40:23.159Z,12.15
2019-03-27T03:42:50.485Z,12.63
2019-03-27T03:45:17.809Z,11.30
2019-03-27T03:47:45.090Z,10.18
2019-03-27T03:50:14.028Z,10.70
2019-03-27T03:52:45.639Z,10.18
2019-03-27T03:55:10.295Z,10.70
2019-03-27T03:57:37.620Z,10.38
2019-03-27T04:00:06.057Z,11.40
2019-03-27T04:02:34.827Z,11.80
2019-03-27T04:05:02.311Z,13.95
2019-03-27T04:07:29.639Z,14.80
2019-03-27T04:09:56.924Z,18.82
2019-03-27T04:12:24.240Z,14.73
2019-03-27T04:14:51.530Z,13.95
2019-03-27T04:17:18.828Z,14.28
2019-03-27T04:19:46.138Z,15.53
2019-03-27T04:22:13.427Z,16.93
2019-03-27T04:24:40.751Z,17.20
2019-03-27T04:27:08.035Z,17.10
2019-03-27T04:29:35.354Z,16.60
2019-03-27T04:32:02.638Z,18.27
2019-03-27T04:34:29.934Z,17.80
2019-03-27T04:36:57.245Z,17.70
2019-03-27T04:39:24.559Z,12.80
2019-03-27T04:41:51.980Z,17.20
2019-03-27T04:44:19.279Z,17.85
2019-03-27T04:46:46.563Z,18.65
2019-03-27T04:49:13.896Z,18.00
2019-03-27T04:51:41.190Z,20.02
2019-03-27T04:54:08.502Z,19.98
2019-03-27T04:56:35.798Z,19.40
2019-03-27T04:59:03.110Z,21.65
2019-03-27T05:01:30.409Z,19.23
2019-03-27T05:03:57.974Z,21.25
2019-03-27T05:06:25.262Z,19.12
2019-03-27T05:08:52.584Z,19.48
2019-03-27T05:11:19.884Z,21.00
2019-03-27T05:13:47.206Z,23.62
2019-03-27T05:16:14.507Z,23.75
2019-03-27T05:18:41.798Z,27.30
2019-03-27T05:21:09.114Z,26.75
2019-03-27T05:23:36.447Z,23.98
2019-03-27T05:26:03.743Z,32.65
2019-03-27T05:28:31.042Z,22.30
2019-03-27T05:30:58.362Z,20.43
2019-03-27T05:33:25.658Z,17.12
2019-03-27T05:35:52.950Z,17.05
2019-03-27T05:38:20.271Z,22.13
2019-03-27T05:40:47.562Z,25.35
2019-03-27T05:43:14.882Z,21.10
2019-03-27T05:45:42.176Z,20.70
2019-03-27T05:48:09.488Z,18.57
2019-03-27T05:50:36.789Z,23.12
2019-03-27T05:53:04.091Z,23.65
2019-03-27T05:55:31.397Z,24.43
2019-03-27T05:57:58.693Z,21.68
2019-03-27T06:00:26.009Z,23.10
2019-03-27T06:02:53.310Z,21.45
2019-03-27T06:05:20.602Z,20.32
2019-03-27T06:07:47.918Z,22.00
2019-03-27T06:10:16.472Z,22.10
2019-03-27T06:12:43.911Z,22.52
2019-03-27T06:15:11.217Z,20.97
2019-03-27T06:17:38.514Z,21.52
2019-03-27T06:20:05.997Z,21.45
2019-03-27T06:22:33.299Z,23.30
2019-03-27T06:25:00.623Z,23.83
2019-03-27T06:27:27.918Z,23.30
2019-03-27T06:29:55.223Z,20.72
2019-03-27T06:32:22.547Z,25.40
2019-03-27T06:34:49.864Z,21.97
2019-03-27T06:37:17.177Z,23.60
2019-03-27T06:39:44.468Z,22.20
2019-03-27T06:42:11.767Z,16.95
2019-03-27T06:44:39.083Z,16.50
2019-03-27T06:47:06.378Z,17.73
2019-03-27T06:49:33.707Z,13.93
2019-03-27T06:52:00.999Z,14.70
2019-03-27T06:54:28.293Z,12.78
2019-03-27T06:56:55.638Z,13.30
2019-03-27T06:59:22.940Z,11.97
2019-03-27T07:01:50.235Z,10.88
2019-03-27T07:04:17.551Z,10.93
2019-03-27T07:06:44.855Z,10.35
2019-03-27T07:09:12.183Z,10.23
2019-03-27T07:11:39.485Z,9.18
2019-03-27T07:14:06.757Z,9.93
2019-03-27T07:16:34.081Z,7.78
2019-03-27T07:19:01.384Z,9.10
2019-03-27T07:21:28.678Z,8.93
2019-03-27T07:23:55.998Z,10.38
2019-03-27T07:26:23.286Z,7.58
2019-03-27T07:28:50.593Z,7.67
2019-03-27T07:31:17.895Z,7.35
2019-03-27T07:33:45.251Z,8.55
2019-03-27T07:36:12.567Z,7.53
2019-03-27T07:38:39.852Z,7.08
2019-03-27T07:41:07.146Z,7.90
2019-03-27T07:43:34.447Z,6.80
2019-03-27T07:46:01.741Z,7.12
2019-03-27T07:48:29.066Z,6.17
2019-03-27T07:50:56.357Z,7.37
2019-03-27T07:53:23.647Z,7.72
2019-03-27T07:55:50.950Z,5.17
2019-03-27T07:58:18.242Z,5.42
2019-03-27T08:00:45.570Z,5.80
2019-03-27T08:03:12.855Z,6.53
2019-03-27T08:05:40.163Z,6.40
2019-03-27T08:08:07.495Z,6.30
2019-03-27T08:10:34.794Z,4.67
2019-03-27T08:13:02.110Z,5.55
2019-03-27T08:15:29.423Z,4.72
2019-03-27T08:17:56.741Z,4.12
2019-03-27T08:20:24.026Z,5.20
2019-03-27T08:22:51.344Z,5.45
2019-03-27T08:25:18.663Z,6.92
2019-03-27T08:27:45.951Z,5.30
2019-03-27T08:30:13.609Z,5.60
2019-03-27T08:32:40.928Z,5.10
2019-03-27T08:35:08.281Z,4.83
2019-03-27T08:37:35.749Z,5.22
2019-03-27T08:40:03.221Z,5.08
2019-03-27T08:42:30.527Z,6.85
2019-03-27T08:44:57.830Z,5.40
2019-03-27T08:47:25.108Z,4.10
2019-03-27T08:49:52.434Z,5.33
2019-03-27T08:52:19.712Z,4.28
2019-03-27T08:54:46.988Z,4.70
2019-03-27T08:57:14.293Z,3.60
2019-03-27T08:59:41.599Z,3.58
2019-03-27T09:02:08.895Z,3.50
2019-03-27T09:04:36.174Z,3.35
2019-03-27T09:07:03.488Z,3.50
2019-03-27T09:09:30.838Z,3.25
2019-03-27T09:11:58.060Z,2.50
2019-03-27T09:14:25.381Z,2.60
2019-03-27T09:16:52.679Z,2.62
2019-03-27T09:19:19.984Z,2.60
2019-03-27T09:21:47.271Z,2.92
2019-03-27T09:24:14.587Z,2.20
2019-03-27T09:26:41.874Z,2.55
2019-03-27T09:29:09.154Z,2.27
2019-03-27T09:31:44.651Z,3.42
2019-03-27T09:34:05.398Z,2.35
2019-03-27T09:36:32.717Z,2.08
2019-03-27T09:39:00.013Z,2.20
2019-03-27T09:41:27.317Z,2.42
2019-03-27T09:43:54.619Z,2.60
2019-03-27T09:46:21.933Z,2.67
2019-03-27T09:48:49.227Z,2.40
2019-03-27T09:51:16.522Z,2.60
2019-03-27T09:53:43.822Z,2.40
2019-03-27T09:56:19.107Z,2.85
2019-03-27T09:58:40.050Z,2.70
2019-03-27T10:01:07.374Z,2.33
2019-03-27T10:03:34.676Z,2.40
2019-03-27T10:06:01.971Z,2.35
2019-03-27T10:08:29.258Z,2.47
2019-03-27T10:10:56.562Z,2.37
2019-03-27T10:13:23.875Z,2.77
2019-03-27T10:15:51.169Z,2.25
2019-03-27T10:18:18.473Z,3.42
2019-03-27T10:20:45.758Z,3.33
2019-03-27T10:23:13.083Z,3.08
2019-03-27T10:25:40.400Z,3.67
2019-03-27T10:28:07.689Z,2.77
2019-03-27T10:30:34.979Z,3.00
2019-03-27T10:33:02.301Z,3.30
2019-03-27T10:35:29.626Z,2.67
2019-03-27T10:37:56.929Z,3.50
2019-03-27T10:40:24.223Z,2.77
2019-03-27T10:42:51.525Z,2.72
2019-03-27T10:45:18.805Z,3.70
2019-03-27T10:47:46.121Z,3.50
2019-03-27T10:50:17.849Z,2.85
2019-03-27T10:52:42.372Z,2.60
2019-03-27T10:55:09.677Z,3.15
2019-03-27T10:57:36.977Z,2.72
2019-03-27T11:00:09.922Z,3.58
2019-03-27T11:02:37.225Z,3.27
2019-03-27T11:05:05.477Z,2.98
2019-03-27T11:07:32.790Z,3.35
2019-03-27T11:10:00.335Z,2.90
2019-03-27T11:12:27.596Z,3.05
2019-03-27T11:14:54.868Z,2.40
2019-03-27T11:17:22.169Z,2.70
2019-03-27T11:19:49.449Z,2.72
2019-03-27T11:22:16.774Z,2.62
2019-03-27T11:24:44.062Z,2.70
2019-03-27T11:27:11.355Z,3.87
2019-03-27T11:29:38.665Z,3.65
2019-03-27T11:32:05.974Z,2.90
2019-03-27T11:34:33.283Z,2.75
2019-03-27T11:37:00.570Z,3.45
2019-03-27T11:39:27.883Z,2.90
2019-03-27T11:41:55.183Z,2.70
2019-03-27T11:44:22.483Z,3.00
2019-03-27T11:46:49.796Z,2.45
2019-03-27T11:49:17.099Z,3.15
2019-03-27T11:51:44.415Z,3.45
2019-03-27T11:54:11.715Z,3.05
2019-03-27T11:56:39.011Z,3.33
2019-03-27T11:59:06.323Z,2.90
2019-03-27T12:01:40.645Z,2.85
2019-03-27T12:04:02.569Z,3.70
2019-03-27T12:06:29.849Z,3.47
2019-03-27T12:08:57.139Z,2.60
2019-03-27T12:11:24.452Z,2.83
2019-03-27T12:13:51.736Z,3.70
2019-03-27T12:16:19.046Z,2.87
2019-03-27T12:18:46.338Z,3.30
2019-03-27T12:21:13.645Z,2.45
2019-03-27T12:23:40.929Z,3.35
2019-03-27T12:26:08.209Z,2.50
2019-03-27T12:28:35.509Z,2.92
2019-03-27T12:31:02.835Z,2.80
2019-03-27T12:33:30.121Z,2.65
2019-03-27T12:35:57.412Z,2.75
2019-03-27T12:38:24.717Z,2.58
2019-03-27T12:40:52.015Z,2.05
2019-03-27T12:43:19.313Z,2.25
2019-03-27T12:45:46.618Z,2.05
2019-03-27T12:48:14.003Z,2.10
2019-03-27T12:50:44.220Z,2.62
2019-03-27T12:53:10.223Z,2.98
2019-03-27T12:55:37.545Z,2.60
2019-03-27T12:58:04.834Z,2.47
2019-03-27T13:00:32.132Z,2.50
2019-03-27T13:02:59.439Z,3.02
2019-03-27T13:05:26.920Z,3.00
2019-03-27T13:07:54.436Z,2.35
2019-03-27T13:10:21.722Z,2.92
2019-03-27T13:12:49.040Z,2.35
2019-03-27T13:15:16.325Z,2.30
2019-03-27T13:17:43.610Z,2.42
2019-03-27T13:20:13.846Z,2.58
2019-03-27T13:22:41.129Z,2.40
2019-03-27T13:25:08.519Z,2.45
2019-03-27T13:27:35.803Z,2.05
2019-03-27T13:30:04.285Z,1.70
2019-03-27T13:32:31.603Z,2.65
2019-03-27T13:34:58.895Z,2.45
2019-03-27T13:37:26.185Z,2.10
2019-03-27T13:39:53.507Z,2.10
2019-03-27T13:42:20.796Z,2.12
2019-03-27T13:44:48.087Z,2.40
2019-03-27T13:47:15.532Z,2.87
2019-03-27T13:49:42.902Z,2.00
2019-03-27T13:52:10.219Z,3.08
2019-03-27T13:54:37.498Z,2.65
2019-03-27T13:57:04.815Z,2.25
2019-03-27T13:59:32.112Z,2.33
2019-03-27T14:01:59.421Z,3.47
2019-03-27T14:04:26.718Z,3.08
2019-03-27T14:06:54.011Z,1.92
2019-03-27T14:09:21.333Z,1.65
2019-03-27T14:11:48.614Z,1.65
2019-03-27T14:14:15.906Z,2.00
2019-03-27T14:16:43.210Z,1.62
2019-03-27T14:19:10.493Z,1.65
2019-03-27T14:21:37.808Z,2.10
2019-03-27T14:24:05.094Z,1.70
2019-03-27T14:26:44.560Z,2.52
2019-03-27T14:29:01.339Z,2.10
2019-03-27T14:31:28.626Z,2.22
2019-03-27T14:33:55.938Z,2.02
2019-03-27T14:36:23.216Z,1.67
2019-03-27T14:38:50.536Z,2.80
2019-03-27T14:41:17.846Z,2.10
2019-03-27T14:43:45.143Z,1.62
2019-03-27T14:46:12.453Z,1.50
2019-03-27T14:48:39.745Z,1.87
2019-03-27T14:51:07.053Z,1.00
2019-03-27T14:53:34.344Z,1.20
2019-03-27T14:56:01.661Z,1.52
2019-03-27T14:58:28.955Z,0.98
2019-03-27T15:00:56.250Z,0.95
2019-03-27T15:03:23.582Z,1.40
2019-03-27T15:05:50.879Z,1.63
2019-03-27T15:08:18.160Z,1.93
2019-03-27T15:10:45.471Z,1.57
2019-03-27T15:13:15.301Z,0.90
2019-03-27T15:15:41.725Z,1.23
2019-03-27T15:18:08.997Z,1.45
2019-03-27T15:20:36.301Z,1.60
2019-03-27T15:23:03.627Z,1.70
2019-03-27T15:25:30.915Z,1.47
2019-03-27T15:27:58.202Z,1.20
2019-03-27T15:30:25.502Z,1.40
2019-03-27T15:32:52.830Z,2.47
2019-03-27T15:35:20.138Z,1.40
2019-03-27T15:37:47.450Z,57.43
2019-03-27T15:40:14.737Z,13.57
2019-03-27T15:42:42.030Z,1.37
2019-03-27T15:45:09.913Z,1.57
2019-03-27T15:47:37.266Z,2.00
2019-03-27T15:50:04.942Z,1.25
2019-03-27T15:52:36.594Z,2.00
2019-03-27T15:55:01.178Z,1.75
2019-03-27T15:57:28.501Z,2.02
2019-03-27T15:59:55.796Z,1.95
2019-03-27T16:02:23.099Z,1.57
2019-03-27T16:04:50.414Z,1.70
2019-03-27T16:07:17.706Z,1.67
2019-03-27T16:09:45.000Z,3.12
2019-03-27T16:12:12.335Z,2.62
2019-03-27T16:14:39.626Z,1.95
2019-03-27T16:17:13.082Z,2.30
2019-03-27T16:19:35.877Z,2.05
2019-03-27T16:22:03.187Z,2.17
2019-03-27T16:24:30.483Z,2.35
2019-03-27T16:27:04.258Z,2.15
2019-03-27T16:29:26.732Z,2.00
2019-03-27T16:31:54.027Z,2.77
2019-03-27T16:34:21.335Z,2.30
2019-03-27T16:36:48.639Z,2.08
2019-03-27T16:39:15.924Z,2.37
2019-03-27T16:41:43.229Z,4.12
2019-03-27T16:44:10.553Z,4.97
2019-03-27T16:46:37.828Z,4.37
2019-03-27T16:49:05.123Z,6.05
2019-03-27T16:51:32.434Z,4.03
2019-03-27T16:53:59.730Z,2.87
2019-03-27T16:56:27.019Z,2.58
2019-03-27T16:58:54.341Z,2.85
2019-03-27T17:01:21.637Z,3.02
2019-03-27T17:03:48.951Z,2.65
2019-03-27T17:06:16.229Z,2.62
2019-03-27T17:08:43.549Z,2.30
2019-03-27T17:11:10.846Z,2.70
2019-03-27T17:13:38.139Z,3.42
2019-03-27T17:16:05.441Z,2.87
2019-03-27T17:18:32.767Z,2.50
2019-03-27T17:21:00.042Z,2.67
2019-03-27T17:23:27.339Z,2.85
2019-03-27T17:25:54.765Z,2.60
2019-03-27T17:28:22.045Z,3.10
2019-03-27T17:30:49.335Z,5.58
2019-03-27T17:33:16.656Z,2.80
2019-03-27T17:35:43.950Z,3.12
2019-03-27T17:38:11.227Z,3.08
2019-03-27T17:40:38.546Z,3.60
2019-03-27T17:43:05.832Z,2.70
2019-03-27T17:45:33.127Z,4.67
2019-03-27T17:48:00.440Z,3.42
2019-03-27T17:50:27.722Z,3.42
2019-03-27T17:52:55.038Z,3.47
2019-03-27T17:55:22.352Z,2.87
2019-03-27T17:57:49.647Z,3.10
2019-03-27T18:00:20.254Z,2.95
2019-03-27T18:02:47.578Z,4.58
2019-03-27T18:05:14.867Z,4.12
2019-03-27T18:07:42.181Z,5.70
2019-03-27T18:10:09.490Z,5.10
2019-03-27T18:12:36.801Z,4.22
2019-03-27T18:15:05.363Z,3.35
2019-03-27T18:17:32.678Z,4.80
2019-03-27T18:19:59.978Z,3.35
2019-03-27T18:22:27.280Z,6.10
2019-03-27T18:24:55.447Z,4.60
2019-03-27T18:27:22.728Z,5.28
2019-03-27T18:29:50.041Z,5.65
2019-03-27T18:32:17.325Z,8.28
2019-03-27T18:34:44.629Z,7.22
2019-03-27T18:37:11.927Z,8.45
2019-03-27T18:39:39.242Z,8.05
2019-03-27T18:42:06.525Z,9.35
2019-03-27T18:44:33.825Z,12.50
2019-03-27T18:47:01.143Z,9.70
2019-03-27T18:49:28.507Z,7.58
2019-03-27T18:51:55.807Z,8.43
2019-03-27T18:54:23.626Z,8.05
2019-03-27T18:56:50.995Z,6.25
2019-03-27T18:59:18.306Z,9.75
2019-03-27T19:01:45.633Z,7.50
2019-03-27T19:04:12.999Z,7.45
2019-03-27T19:06:40.315Z,6.92
2019-03-27T19:09:08.198Z,6.60
2019-03-27T19:11:35.528Z,8.15
2019-03-27T19:14:02.817Z,7.60
2019-03-27T19:16:30.093Z,7.10
2019-03-27T19:18:57.408Z,6.22
2019-03-27T19:21:24.708Z,5.15
2019-03-27T19:23:51.990Z,3.85
2019-03-27T19:26:19.304Z,4.42
2019-03-27T19:28:46.642Z,4.30
2019-03-27T19:31:13.932Z,3.83
2019-03-27T19:33:41.209Z,4.40
2019-03-27T19:36:08.528Z,4.25
2019-03-27T19:38:35.829Z,4.80
2019-03-27T19:41:03.286Z,6.22
2019-03-27T19:43:30.569Z,5.90
2019-03-27T19:45:57.873Z,7.80
2019-03-27T19:48:25.170Z,10.45
2019-03-27T19:50:52.487Z,8.78
2019-03-27T19:53:19.777Z,8.13
2019-03-27T19:55:47.087Z,6.85
2019-03-27T19:58:14.365Z,6.60
2019-03-27T20:00:41.668Z,6.15
2019-03-27T20:03:08.969Z,5.70
2019-03-27T20:05:36.263Z,9.35
2019-03-27T20:08:03.562Z,13.93
2019-03-27T20:10:30.888Z,12.88
2019-03-27T20:12:58.210Z,12.73
2019-03-27T20:15:25.503Z,9.18
2019-03-27T20:17:52.853Z,6.05
2019-03-27T20:20:20.173Z,7.10
2019-03-27T20:22:47.466Z,5.08
2019-03-27T20:25:15.029Z,5.25
2019-03-27T20:27:42.478Z,5.12
2019-03-27T20:30:13.497Z,4.10
2019-03-27T20:32:40.895Z,5.08
2019-03-27T20:35:08.165Z,3.98
2019-03-27T20:37:35.449Z,4.70
2019-03-27T20:40:03.529Z,4.95
2019-03-27T20:42:30.817Z,6.03
2019-03-27T20:44:58.138Z,6.85
2019-03-27T20:47:25.423Z,6.45
2019-03-27T20:49:52.710Z,6.90
2019-03-27T20:52:20.027Z,6.15
2019-03-27T20:54:54.771Z,5.17
2019-03-27T20:57:16.284Z,5.45
2019-03-27T20:59:43.573Z,5.92
2019-03-27T21:02:10.891Z,5.00
2019-03-27T21:04:38.180Z,5.58
2019-03-27T21:07:05.472Z,5.40
2019-03-27T21:09:32.807Z,6.80
2019-03-27T21:12:00.097Z,6.45
2019-03-27T21:14:27.415Z,7.78
2019-03-27T21:16:54.709Z,6.72
2019-03-27T21:19:21.993Z,7.80
2019-03-27T21:21:49.318Z,10.00
2019-03-27T21:24:16.634Z,10.88
2019-03-27T21:26:43.934Z,12.15
2019-03-27T21:29:11.262Z,10.63
2019-03-27T21:31:38.630Z,11.03
2019-03-27T21:34:05.876Z,10.38
2019-03-27T21:36:33.159Z,8.53
2019-03-27T21:39:00.450Z,8.98
2019-03-27T21:41:27.770Z,8.00
2019-03-27T21:43:55.045Z,8.90
2019-03-27T21:46:22.364Z,8.28
2019-03-27T21:48:49.655Z,9.28
2019-03-27T21:51:16.937Z,6.92
2019-03-27T21:53:50.252Z,7.30
2019-03-27T21:56:13.224Z,7.85
2019-03-27T21:58:40.508Z,14.30
2019-03-27T22:01:07.799Z,14.07
2019-03-27T22:03:35.054Z,13.45
2019-03-27T22:06:02.431Z,9.63
2019-03-27T22:08:29.722Z,10.03
2019-03-27T22:10:57.047Z,14.38
2019-03-27T22:13:24.371Z,14.93
2019-03-27T22:15:51.667Z,10.28
2019-03-27T22:18:18.993Z,9.43
2019-03-27T22:20:46.336Z,10.08
2019-03-27T22:23:13.632Z,10.95
2019-03-27T22:25:40.943Z,8.43
2019-03-27T22:28:08.226Z,7.92
2019-03-27T22:30:35.553Z,8.98
2019-03-27T22:33:02.865Z,8.93
2019-03-27T22:35:30.165Z,9.18
2019-03-27T22:37:57.468Z,9.00
2019-03-27T22:40:24.782Z,9.53
2019-03-27T22:42:52.069Z,9.95
2019-03-27T22:45:19.356Z,8.88
2019-03-27T22:47:46.678Z,9.18
2019-03-27T22:50:13.987Z,9.60
2019-03-27T22:52:41.293Z,9.30
2019-03-27T22:55:08.572Z,9.25
2019-03-27T22:57:35.877Z,9.00
2019-03-27T23:00:04.617Z,8.70
2019-03-27T23:02:31.966Z,8.78
2019-03-27T23:04:59.302Z,7.75
2019-03-27T23:07:26.576Z,8.75
2019-03-27T23:09:53.852Z,8.85
2019-03-27T23:12:21.188Z,9.10
2019-03-27T23:14:48.477Z,9.05
2019-03-27T23:17:15.757Z,9.60
2019-03-27T23:19:43.070Z,9.00
2019-03-27T23:22:10.399Z,8.65
2019-03-27T23:24:37.689Z,9.78
2019-03-27T23:27:05.008Z,8.43
2019-03-27T23:29:32.291Z,8.90
2019-03-27T23:31:59.607Z,8.65
2019-03-27T23:34:26.904Z,8.90
2019-03-27T23:36:54.214Z,9.73
2019-03-27T23:39:21.507Z,9.05
2019-03-27T23:41:48.823Z,10.03
2019-03-27T23:44:16.196Z,9.08
2019-03-27T23:46:43.482Z,8.68
2019-03-27T23:49:10.795Z,9.00
2019-03-27T23:51:38.090Z,9.63
2019-03-27T23:54:05.409Z,9.53
2019-03-27T23:56:32.698Z,9.48
2019-03-27T23:59:00.017Z,8.98
